createdAt,value
2023-04-30T00:00:11.784Z,18.10
2023-04-30T00:06:07.287Z,18.20
2023-04-30T00:12:01.720Z,14.30
2023-04-30T00:14:31.717Z,13.50
2023-04-30T00:17:01.839Z,14.85
2023-04-30T00:19:33.082Z,12.98
2023-04-30T00:22:14.938Z,13.23
2023-04-30T00:27:40.773Z,12.52
2023-04-30T00:38:42.969Z,12.73
2023-04-30T00:41:38.051Z,12.77
2023-04-30T00:44:11.703Z,11.95
2023-04-30T00:46:42.411Z,12.75
2023-04-30T00:58:06.541Z,15.52
2023-04-30T01:00:39.356Z,14.55
2023-04-30T01:06:07.208Z,14.50
2023-04-30T01:08:39.049Z,13.68
2023-04-30T01:18:26.652Z,12.73
2023-04-30T01:21:10.902Z,13.82
2023-04-30T01:30:03.424Z,14.65
2023-04-30T01:32:37.072Z,13.95
2023-04-30T01:35:10.260Z,13.93
2023-04-30T01:38:06.793Z,13.80
2023-04-30T01:41:21.975Z,13.57
2023-04-30T01:44:24.551Z,20.70
2023-04-30T01:47:28.068Z,16.73
2023-04-30T01:50:41.586Z,17.42
2023-04-30T01:53:50.597Z,19.10
2023-04-30T01:56:39.330Z,29.60
2023-04-30T02:02:39.143Z,22.30
2023-04-30T02:05:12.988Z,21.33
2023-04-30T02:08:13.255Z,20.65
2023-04-30T02:11:10.139Z,25.10
2023-04-30T02:13:53.589Z,28.13
2023-04-30T02:16:30.167Z,46.40
2023-04-30T02:19:03.054Z,38.45
2023-04-30T02:21:36.158Z,37.65
2023-04-30T02:24:15.993Z,30.27
2023-04-30T02:26:58.830Z,33.28
2023-04-30T02:29:42.605Z,33.80
2023-04-30T02:32:32.281Z,29.35
2023-04-30T02:35:11.901Z,31.70
2023-04-30T02:38:06.405Z,26.65
2023-04-30T02:40:37.786Z,27.23
2023-04-30T02:46:11.916Z,26.30
2023-04-30T02:49:09.686Z,27.02
2023-04-30T02:51:50.432Z,26.05
2023-04-30T02:54:26.157Z,26.10
2023-04-30T02:57:04.452Z,25.92
2023-04-30T02:59:46.376Z,28.73
2023-04-30T03:02:22.045Z,21.00
2023-04-30T03:04:51.685Z,54.78
2023-04-30T03:07:20.861Z,35.42
2023-04-30T03:10:04.287Z,17.83
2023-04-30T03:12:34.969Z,13.88
2023-04-30T03:15:03.838Z,14.95
2023-04-30T03:24:00.067Z,15.15
2023-04-30T03:26:36.651Z,19.77
2023-04-30T03:29:05.857Z,16.20
2023-04-30T03:31:38.220Z,42.20
2023-04-30T03:34:07.643Z,27.30
2023-04-30T03:36:37.017Z,28.05
2023-04-30T03:44:41.420Z,22.88
2023-04-30T03:47:14.011Z,23.77
2023-04-30T03:50:12.872Z,26.33
2023-04-30T03:52:41.794Z,28.95
2023-04-30T03:55:12.009Z,28.42
2023-04-30T03:57:43.753Z,31.08
2023-04-30T04:00:19.230Z,28.90
2023-04-30T04:02:54.724Z,26.40
2023-04-30T04:07:52.235Z,19.60
2023-04-30T04:10:20.989Z,20.42
2023-04-30T04:12:50.422Z,17.48
2023-04-30T04:15:19.124Z,19.58
2023-04-30T04:17:52.448Z,14.27
2023-04-30T04:20:21.355Z,21.52
2023-04-30T04:22:58.321Z,17.23
2023-04-30T04:25:59.192Z,12.90
2023-04-30T04:28:28.855Z,12.25
2023-04-30T04:30:57.684Z,16.02
2023-04-30T04:33:26.779Z,18.20
2023-04-30T04:35:56.418Z,23.15
2023-04-30T04:38:25.836Z,20.95
2023-04-30T04:40:58.426Z,17.80
2023-04-30T04:43:27.402Z,12.98
2023-04-30T04:45:56.542Z,11.45
2023-04-30T04:51:04.457Z,12.60
2023-04-30T04:53:34.863Z,9.95
2023-04-30T04:56:04.347Z,8.63
2023-04-30T04:58:33.900Z,12.18
2023-04-30T05:01:03.873Z,10.30
2023-04-30T05:03:33.743Z,9.73
2023-04-30T05:06:04.848Z,10.95
2023-04-30T05:08:33.803Z,9.43
2023-04-30T05:11:02.821Z,9.48
2023-04-30T05:13:32.404Z,10.07
2023-04-30T05:16:01.743Z,9.85
2023-04-30T05:18:31.274Z,12.40
2023-04-30T05:21:00.010Z,8.68
2023-04-30T05:23:29.490Z,8.32
2023-04-30T05:25:58.566Z,8.65
2023-04-30T05:28:27.526Z,8.63
2023-04-30T05:30:56.928Z,9.50
2023-04-30T05:33:25.944Z,9.48
2023-04-30T05:35:54.813Z,9.85
2023-04-30T05:38:25.162Z,8.82
2023-04-30T05:40:53.973Z,8.23
2023-04-30T05:43:22.745Z,8.65
2023-04-30T05:45:51.612Z,9.75
2023-04-30T05:48:20.810Z,11.73
2023-04-30T05:51:05.019Z,8.43
2023-04-30T05:53:33.832Z,7.90
2023-04-30T05:56:03.023Z,7.78
2023-04-30T05:58:31.911Z,6.88
2023-04-30T06:01:01.065Z,5.45
2023-04-30T06:03:30.033Z,6.00
2023-04-30T06:05:59.705Z,6.15
2023-04-30T06:08:28.990Z,6.18
2023-04-30T06:10:57.931Z,7.70
2023-04-30T06:13:27.298Z,6.55
2023-04-30T06:15:56.112Z,6.03
2023-04-30T06:18:25.144Z,5.38
2023-04-30T06:20:53.997Z,6.78
2023-04-30T06:23:23.523Z,6.40
2023-04-30T06:25:52.170Z,6.47
2023-04-30T06:28:25.159Z,6.45
2023-04-30T06:30:56.128Z,7.10
2023-04-30T06:33:25.251Z,8.52
2023-04-30T06:35:56.306Z,10.40
2023-04-30T06:38:35.000Z,11.88
2023-04-30T06:41:04.266Z,12.60
2023-04-30T06:43:42.884Z,12.57
2023-04-30T06:46:18.977Z,12.65
2023-04-30T06:48:49.715Z,13.43
2023-04-30T06:51:18.808Z,13.35
2023-04-30T06:54:20.188Z,12.18
2023-04-30T06:57:25.508Z,12.30
2023-04-30T06:59:55.645Z,10.68
2023-04-30T07:02:25.468Z,12.63
2023-04-30T07:04:55.408Z,11.70
2023-04-30T07:07:24.644Z,10.02
2023-04-30T07:09:54.559Z,11.13
2023-04-30T07:12:24.003Z,10.05
2023-04-30T07:14:53.007Z,11.13
2023-04-30T07:17:21.949Z,8.32
2023-04-30T07:22:41.481Z,9.02
2023-04-30T07:28:33.392Z,7.28
2023-04-30T07:31:02.999Z,6.75
2023-04-30T07:33:32.328Z,5.63
2023-04-30T07:36:01.163Z,5.70
2023-04-30T07:41:43.825Z,5.28
2023-04-30T07:44:13.623Z,5.80
2023-04-30T07:46:51.499Z,4.75
2023-04-30T07:49:20.838Z,5.82
2023-04-30T07:51:50.027Z,4.90
2023-04-30T07:54:19.771Z,4.47
2023-04-30T07:56:50.020Z,4.13
2023-04-30T07:59:19.066Z,4.72
2023-04-30T08:01:48.810Z,3.45
2023-04-30T08:04:19.828Z,3.58
2023-04-30T08:06:50.778Z,2.80
2023-04-30T08:09:22.356Z,3.75
2023-04-30T08:11:51.422Z,2.38
2023-04-30T08:14:20.474Z,1.90
2023-04-30T08:16:53.556Z,1.65
2023-04-30T08:19:22.735Z,1.65
2023-04-30T08:21:51.869Z,2.05
2023-04-30T08:24:21.457Z,3.13
2023-04-30T08:26:50.958Z,1.88
2023-04-30T08:29:21.005Z,2.10
2023-04-30T08:31:50.823Z,2.83
2023-04-30T08:34:19.981Z,2.75
2023-04-30T08:36:48.929Z,2.92
2023-04-30T08:39:17.972Z,3.05
2023-04-30T08:41:53.677Z,3.33
2023-04-30T08:44:24.204Z,3.97
2023-04-30T08:46:59.266Z,4.90
2023-04-30T08:49:29.231Z,3.70
2023-04-30T08:52:01.693Z,4.78
2023-04-30T08:54:35.980Z,4.35
2023-04-30T08:57:05.717Z,3.75
2023-04-30T08:59:34.603Z,6.25
2023-04-30T09:02:04.014Z,5.32
2023-04-30T09:04:33.105Z,4.47
2023-04-30T09:07:04.426Z,4.07
2023-04-30T09:09:40.219Z,4.00
2023-04-30T09:12:23.976Z,4.63
2023-04-30T09:15:04.702Z,4.30
2023-04-30T09:17:35.308Z,4.45
2023-04-30T09:20:11.248Z,4.75
2023-04-30T09:22:42.094Z,5.47
2023-04-30T09:25:12.469Z,4.70
2023-04-30T09:27:42.502Z,6.22
2023-04-30T09:30:31.462Z,4.45
2023-04-30T09:33:00.650Z,4.60
2023-04-30T09:35:38.205Z,4.18
2023-04-30T09:38:07.931Z,4.07
2023-04-30T09:40:38.619Z,4.07
2023-04-30T09:43:08.648Z,3.78
2023-04-30T09:49:04.518Z,3.90
2023-04-30T09:54:05.893Z,3.53
2023-04-30T09:56:40.293Z,4.50
2023-04-30T09:59:11.046Z,4.47
2023-04-30T10:01:41.079Z,5.68
2023-04-30T10:04:11.706Z,3.70
2023-04-30T10:06:44.660Z,3.30
2023-04-30T10:09:17.181Z,3.10
2023-04-30T10:11:48.444Z,2.90
2023-04-30T10:14:25.118Z,3.28
2023-04-30T10:17:05.331Z,3.72
2023-04-30T10:19:42.819Z,3.50
2023-04-30T10:22:13.002Z,3.50
2023-04-30T10:24:45.716Z,4.00
2023-04-30T10:27:15.812Z,3.75
2023-04-30T10:29:53.302Z,3.90
2023-04-30T10:32:25.147Z,3.55
2023-04-30T10:35:09.802Z,4.85
2023-04-30T10:37:50.654Z,6.93
2023-04-30T10:43:08.686Z,5.93
2023-04-30T10:45:39.223Z,3.60
2023-04-30T10:48:09.011Z,6.47
2023-04-30T10:50:46.361Z,5.50
2023-04-30T10:56:32.455Z,3.85
2023-04-30T10:59:03.380Z,3.90
2023-04-30T11:01:32.776Z,4.93
2023-04-30T11:04:09.818Z,4.03
2023-04-30T11:07:04.808Z,3.72
2023-04-30T11:09:45.027Z,3.92
2023-04-30T11:12:30.748Z,4.10
2023-04-30T11:15:17.786Z,3.60
2023-04-30T11:17:51.374Z,3.90
2023-04-30T11:20:26.612Z,4.05
2023-04-30T11:23:37.912Z,4.72
2023-04-30T11:26:09.599Z,4.72
2023-04-30T11:28:39.447Z,5.07
2023-04-30T11:31:08.516Z,4.07
2023-04-30T11:33:37.600Z,5.82
2023-04-30T11:36:07.019Z,5.95
2023-04-30T11:38:38.198Z,5.90
2023-04-30T11:41:07.235Z,5.30
2023-04-30T11:43:42.458Z,5.80
2023-04-30T11:46:20.766Z,6.47
2023-04-30T11:51:32.214Z,6.43
2023-04-30T11:54:01.507Z,8.35
2023-04-30T11:56:30.595Z,8.30
2023-04-30T11:58:59.404Z,6.63
2023-04-30T12:01:29.523Z,6.53
2023-04-30T12:03:58.858Z,6.47
2023-04-30T12:06:30.033Z,5.40
2023-04-30T12:09:02.586Z,5.68
2023-04-30T12:11:33.120Z,5.95
2023-04-30T12:14:08.450Z,6.75
2023-04-30T12:16:41.708Z,5.55
2023-04-30T12:19:10.723Z,5.95
2023-04-30T12:21:41.088Z,6.15
2023-04-30T12:24:13.042Z,5.40
2023-04-30T12:26:43.419Z,6.65
2023-04-30T12:29:15.496Z,5.15
2023-04-30T12:31:45.637Z,5.30
2023-04-30T12:34:16.262Z,6.38
2023-04-30T12:36:45.220Z,6.00
2023-04-30T12:39:17.071Z,6.35
2023-04-30T12:41:49.972Z,6.40
2023-04-30T12:47:01.446Z,6.80
2023-04-30T12:49:36.292Z,6.65
2023-04-30T12:52:12.257Z,6.00
2023-04-30T12:54:42.022Z,7.30
2023-04-30T12:57:13.894Z,6.60
2023-04-30T13:00:06.609Z,5.97
2023-04-30T13:02:35.681Z,6.45
2023-04-30T13:05:04.901Z,6.63
2023-04-30T13:07:40.927Z,5.80
2023-04-30T13:10:10.587Z,7.05
2023-04-30T13:12:39.421Z,6.60
2023-04-30T13:15:09.009Z,7.85
2023-04-30T13:17:37.994Z,6.57
2023-04-30T13:20:07.656Z,6.18
2023-04-30T13:22:36.527Z,6.53
2023-04-30T13:25:05.589Z,6.20
2023-04-30T13:27:34.444Z,6.80
2023-04-30T13:30:07.662Z,6.45
2023-04-30T13:32:36.563Z,7.80
2023-04-30T13:35:05.775Z,6.68
2023-04-30T13:37:34.810Z,7.40
2023-04-30T13:40:04.829Z,6.85
2023-04-30T13:42:34.017Z,7.68
2023-04-30T13:45:26.901Z,7.45
2023-04-30T13:47:55.750Z,8.57
2023-04-30T13:50:24.639Z,8.60
2023-04-30T13:52:53.611Z,9.13
2023-04-30T13:55:23.137Z,9.13
2023-04-30T13:57:52.196Z,8.98
2023-04-30T14:00:23.236Z,8.88
2023-04-30T14:02:53.072Z,9.18
2023-04-30T14:05:22.409Z,8.88
2023-04-30T14:07:51.920Z,9.88
2023-04-30T14:10:21.230Z,8.93
2023-04-30T14:12:52.144Z,11.45
2023-04-30T14:15:22.276Z,10.43
2023-04-30T14:17:54.074Z,9.82
2023-04-30T14:20:26.381Z,11.57
2023-04-30T14:23:05.002Z,11.27
2023-04-30T14:25:33.860Z,12.10
2023-04-30T14:28:02.809Z,11.90
2023-04-30T14:30:32.396Z,11.85
2023-04-30T14:33:01.527Z,12.32
2023-04-30T14:35:30.899Z,11.38
2023-04-30T14:37:59.632Z,12.85
2023-04-30T14:40:28.689Z,12.60
2023-04-30T14:42:57.502Z,11.60
2023-04-30T14:45:29.060Z,12.70
2023-04-30T14:47:58.143Z,10.18
2023-04-30T14:50:27.209Z,10.45
2023-04-30T14:52:56.258Z,11.02
2023-04-30T14:55:25.893Z,10.50
2023-04-30T14:57:57.502Z,11.43
2023-04-30T15:00:26.519Z,11.82
2023-04-30T15:02:55.439Z,11.73
2023-04-30T15:05:27.093Z,12.57
2023-04-30T15:07:58.291Z,12.17
2023-04-30T15:10:28.574Z,12.95
2023-04-30T15:12:57.386Z,13.32
2023-04-30T15:15:29.276Z,12.55
2023-04-30T15:17:59.401Z,14.57
2023-04-30T15:20:38.311Z,12.57
2023-04-30T15:23:09.814Z,13.67
2023-04-30T15:25:39.093Z,14.70
2023-04-30T15:28:07.965Z,14.52
2023-04-30T15:30:37.216Z,13.07
2023-04-30T15:33:06.193Z,13.70
2023-04-30T15:35:35.458Z,11.55
2023-04-30T15:38:04.215Z,10.25
2023-04-30T15:40:33.606Z,9.68
2023-04-30T15:43:02.386Z,11.13
2023-04-30T15:45:31.407Z,10.00
2023-04-30T15:48:01.352Z,12.35
2023-04-30T15:50:30.761Z,13.15
2023-04-30T15:52:59.668Z,12.65
2023-04-30T15:55:28.589Z,13.10
2023-04-30T15:57:57.551Z,13.68
2023-04-30T16:00:28.144Z,14.95
2023-04-30T16:02:57.476Z,13.05
2023-04-30T16:05:26.979Z,13.43
2023-04-30T16:07:57.628Z,13.52
2023-04-30T16:10:29.210Z,14.27
2023-04-30T16:12:59.943Z,14.15
2023-04-30T16:15:30.956Z,13.98
2023-04-30T16:18:01.893Z,16.30
2023-04-30T16:20:32.346Z,15.73
2023-04-30T16:23:01.375Z,16.38
2023-04-30T16:25:30.531Z,15.73
2023-04-30T16:27:59.969Z,15.88
2023-04-30T16:30:54.047Z,16.08
2023-04-30T16:33:26.196Z,16.27
2023-04-30T16:35:57.362Z,16.30
2023-04-30T16:38:26.245Z,16.92
2023-04-30T16:40:55.521Z,15.68
2023-04-30T16:43:27.988Z,15.70
2023-04-30T16:45:57.258Z,16.55
2023-04-30T16:48:26.484Z,16.83
2023-04-30T16:50:58.687Z,16.75
2023-04-30T16:53:30.018Z,15.57
2023-04-30T16:56:00.184Z,16.63
2023-04-30T17:01:37.302Z,15.00
2023-04-30T17:04:06.135Z,15.65
2023-04-30T17:06:36.355Z,13.63
2023-04-30T17:09:06.035Z,14.95
2023-04-30T17:11:35.456Z,14.02
2023-04-30T17:14:04.204Z,13.52
2023-04-30T17:16:33.307Z,13.88
2023-04-30T17:19:02.141Z,13.00
2023-04-30T17:21:31.191Z,14.18
2023-04-30T17:23:59.908Z,13.30
2023-04-30T17:26:28.930Z,12.95
2023-04-30T17:28:57.638Z,12.13
2023-04-30T17:31:27.921Z,12.23
2023-04-30T17:33:57.418Z,12.25
2023-04-30T17:36:26.359Z,11.85
2023-04-30T17:38:57.273Z,12.65
2023-04-30T17:41:27.109Z,12.25
2023-04-30T17:43:59.929Z,12.10
2023-04-30T17:46:28.803Z,12.73
2023-04-30T17:48:57.904Z,11.95
2023-04-30T17:52:00.270Z,12.82
2023-04-30T17:54:31.851Z,12.90
2023-04-30T17:57:01.245Z,12.27
2023-04-30T17:59:31.190Z,12.27
2023-04-30T18:02:00.464Z,12.75
2023-04-30T18:04:29.566Z,13.27
2023-04-30T18:06:59.590Z,13.40
2023-04-30T18:09:28.963Z,11.95
2023-04-30T18:15:09.497Z,13.07
2023-04-30T18:17:38.511Z,13.07
2023-04-30T18:20:09.036Z,12.23
2023-04-30T18:22:43.977Z,11.98
2023-04-30T18:25:14.567Z,10.52
2023-04-30T18:27:44.797Z,13.25
2023-04-30T18:30:14.317Z,11.75
2023-04-30T18:32:45.116Z,12.68
2023-04-30T18:35:14.255Z,11.65
2023-04-30T18:37:43.085Z,11.25
2023-04-30T18:40:12.490Z,13.18
2023-04-30T18:42:41.348Z,11.63
2023-04-30T18:45:12.420Z,12.00
2023-04-30T18:47:41.519Z,11.77
2023-04-30T18:50:14.390Z,12.32
2023-04-30T18:52:43.230Z,12.05
2023-04-30T18:55:14.746Z,12.55
2023-04-30T18:57:44.117Z,11.90
2023-04-30T19:00:15.182Z,13.13
2023-04-30T19:02:44.973Z,12.57
2023-04-30T19:05:15.791Z,12.75
2023-04-30T19:07:44.703Z,12.25
2023-04-30T19:10:13.726Z,13.15
2023-04-30T19:12:45.030Z,11.65
2023-04-30T19:15:15.778Z,12.25
2023-04-30T19:17:45.698Z,11.63
2023-04-30T19:20:14.623Z,12.93
2023-04-30T19:22:44.632Z,13.70
2023-04-30T19:25:13.650Z,14.43
2023-04-30T19:27:42.756Z,16.77
2023-04-30T19:30:12.668Z,17.13
2023-04-30T19:32:41.531Z,16.92
2023-04-30T19:35:10.821Z,17.52
2023-04-30T19:37:39.646Z,19.52
2023-04-30T19:40:40.778Z,21.38
2023-04-30T19:46:19.368Z,21.70
2023-04-30T19:48:51.544Z,24.75
2023-04-30T19:51:44.796Z,23.38
2023-04-30T19:54:16.024Z,54.35
2023-04-30T19:56:45.482Z,39.97
2023-04-30T19:59:15.054Z,31.67
2023-04-30T20:01:44.195Z,29.38
2023-04-30T20:04:14.227Z,25.10
2023-04-30T20:06:43.804Z,25.77
2023-04-30T20:09:13.426Z,22.30
2023-04-30T20:11:43.221Z,20.45
2023-04-30T20:14:12.902Z,19.50
2023-04-30T20:16:42.537Z,21.48
2023-04-30T20:19:13.945Z,20.10
2023-04-30T20:21:43.895Z,21.10
2023-04-30T20:24:14.713Z,22.05
2023-04-30T20:26:45.795Z,23.67
2023-04-30T20:29:16.658Z,24.05
2023-04-30T20:31:48.996Z,21.58
2023-04-30T20:36:48.909Z,24.90
2023-04-30T20:39:20.050Z,25.42
2023-04-30T20:41:50.184Z,27.15
2023-04-30T20:44:20.276Z,25.83
2023-04-30T20:46:59.634Z,26.50
2023-04-30T20:49:51.413Z,27.83
2023-04-30T20:52:28.087Z,26.02
2023-04-30T20:55:18.837Z,25.10
2023-04-30T20:58:10.310Z,23.48
2023-04-30T21:00:41.596Z,24.05
2023-04-30T21:03:11.841Z,23.25
2023-04-30T21:05:42.240Z,22.40
2023-04-30T21:08:12.526Z,23.00
2023-04-30T21:10:43.360Z,21.55
2023-04-30T21:13:14.234Z,20.63
2023-04-30T21:15:44.596Z,21.05
2023-04-30T21:18:15.402Z,20.73
2023-04-30T21:20:45.366Z,18.17
2023-04-30T21:23:16.435Z,18.55
2023-04-30T21:25:47.307Z,19.55
2023-04-30T21:28:17.923Z,18.43
2023-04-30T21:31:19.421Z,23.40
2023-04-30T21:33:49.913Z,28.67
2023-04-30T21:36:27.329Z,30.77
2023-04-30T21:39:31.606Z,28.83
2023-04-30T21:42:06.034Z,31.70
2023-04-30T21:44:37.600Z,35.75
2023-04-30T21:47:10.292Z,37.72
2023-04-30T21:49:49.726Z,34.25
2023-04-30T21:52:20.819Z,28.35
2023-04-30T21:54:52.060Z,27.05
2023-04-30T21:58:07.537Z,24.45
2023-04-30T22:00:38.242Z,26.33
2023-04-30T22:03:08.490Z,26.50
2023-04-30T22:06:10.290Z,26.17
2023-04-30T22:08:43.884Z,27.37
2023-04-30T22:11:13.992Z,25.88
2023-04-30T22:13:43.667Z,27.15
2023-04-30T22:16:14.662Z,28.25
2023-04-30T22:18:50.044Z,25.23
2023-04-30T22:21:20.823Z,25.65
2023-04-30T22:23:50.824Z,23.50
2023-04-30T22:29:40.286Z,24.63
2023-04-30T22:32:13.312Z,26.25
2023-04-30T22:34:44.374Z,25.20
2023-04-30T22:37:20.457Z,23.85
2023-04-30T22:39:53.269Z,24.67
2023-04-30T22:45:24.811Z,24.08
2023-04-30T22:48:06.124Z,26.55
2023-04-30T22:50:39.003Z,25.73
2023-04-30T22:55:47.659Z,24.40
2023-04-30T22:58:17.746Z,26.15
2023-04-30T23:00:47.709Z,25.08
2023-04-30T23:03:18.907Z,26.30
2023-04-30T23:05:52.972Z,25.50
2023-04-30T23:08:51.242Z,26.92
2023-04-30T23:11:21.718Z,25.65
2023-04-30T23:13:52.787Z,25.75
2023-04-30T23:16:34.664Z,25.40
2023-04-30T23:19:13.031Z,26.00
2023-04-30T23:21:44.412Z,25.77
2023-04-30T23:24:14.949Z,30.15
2023-04-30T23:26:45.769Z,32.47
2023-04-30T23:29:16.499Z,28.95
2023-04-30T23:31:46.498Z,30.65
2023-04-30T23:34:18.034Z,31.15
2023-04-30T23:36:48.733Z,28.50
2023-04-30T23:39:35.933Z,27.83
2023-04-30T23:42:09.177Z,26.20
2023-04-30T23:44:46.930Z,25.93
2023-04-30T23:47:23.222Z,24.88
2023-04-30T23:50:21.793Z,23.58
2023-04-30T23:52:51.716Z,23.58
2023-04-30T23:55:43.317Z,23.80
2023-04-30T23:58:13.972Z,25.00
